createdAt,value
2018-06-09T00:02:20.168Z,68.14
2018-06-09T00:04:46.127Z,68.58
2018-06-09T00:07:12.067Z,68.87
2018-06-09T00:09:38.090Z,68.53
2018-06-09T00:12:04.199Z,69.28
2018-06-09T00:14:30.257Z,67.99
2018-06-09T00:16:56.212Z,69.37
2018-06-09T00:19:22.245Z,68.46
2018-06-09T00:21:48.220Z,68.88
2018-06-09T00:24:14.190Z,68.30
2018-06-09T00:26:40.242Z,67.87
2018-06-09T00:29:06.188Z,68.46
2018-06-09T00:31:32.156Z,68.98
2018-06-09T00:33:58.101Z,69.78
2018-06-09T00:36:24.056Z,70.21
2018-06-09T00:38:50.461Z,69.98
2018-06-09T00:41:16.467Z,69.08
2018-06-09T00:43:42.430Z,67.78
2018-06-09T00:46:08.398Z,69.63
2018-06-09T00:48:34.442Z,70.13
2018-06-09T00:51:00.500Z,69.31
2018-06-09T00:53:26.547Z,67.40
2018-06-09T00:55:52.540Z,67.04
2018-06-09T00:58:18.494Z,68.89
2018-06-09T01:00:44.526Z,68.35
2018-06-09T01:03:10.516Z,67.89
2018-06-09T01:05:36.594Z,68.24
2018-06-09T01:08:02.527Z,69.20
2018-06-09T01:10:28.458Z,69.56
2018-06-09T01:12:54.440Z,70.11
2018-06-09T01:15:20.364Z,68.77
2018-06-09T01:17:46.305Z,69.01
2018-06-09T01:20:12.260Z,68.29
2018-06-09T01:22:38.214Z,67.57
2018-06-09T01:25:04.136Z,67.86
2018-06-09T01:27:30.108Z,68.48
2018-06-09T01:29:56.051Z,70.11
2018-06-09T01:32:22.004Z,69.98
2018-06-09T01:34:47.933Z,69.99
2018-06-09T01:37:13.885Z,68.82
2018-06-09T01:39:39.832Z,67.62
2018-06-09T01:42:05.788Z,69.14
2018-06-09T01:44:31.728Z,69.25
2018-06-09T01:46:57.679Z,68.53
2018-06-09T01:49:23.657Z,67.81
2018-06-09T01:51:49.699Z,67.62
2018-06-09T01:54:15.652Z,66.86
2018-06-09T01:56:41.612Z,69.01
2018-06-09T01:59:07.562Z,68.14
2018-06-09T02:01:33.538Z,69.40
2018-06-09T02:03:59.505Z,69.40
2018-06-09T02:06:25.465Z,67.96
2018-06-09T02:08:52.820Z,68.64
2018-06-09T02:11:18.816Z,70.00
2018-06-09T02:13:44.759Z,71.03
2018-06-09T02:16:10.724Z,69.80
2018-06-09T02:18:36.659Z,70.36
2018-06-09T02:21:02.603Z,70.61
2018-06-09T02:23:28.567Z,70.47
2018-06-09T02:25:54.574Z,68.45
2018-06-09T02:28:20.521Z,68.69
2018-06-09T02:30:46.455Z,67.80
2018-06-09T02:33:12.410Z,68.36
2018-06-09T02:35:38.346Z,69.53
2018-06-09T02:38:04.299Z,68.33
2018-06-09T02:40:30.276Z,68.59
2018-06-09T02:42:56.247Z,70.83
2018-06-09T02:45:22.206Z,70.46
2018-06-09T02:47:48.196Z,69.83
2018-06-09T02:50:14.181Z,70.59
2018-06-09T02:52:40.544Z,69.88
2018-06-09T02:55:06.519Z,69.80
2018-06-09T02:57:32.459Z,71.57
2018-06-09T02:59:58.399Z,70.57
2018-06-09T03:02:24.350Z,69.15
2018-06-09T03:04:50.295Z,70.58
2018-06-09T03:07:16.265Z,70.84
2018-06-09T03:09:42.243Z,70.36
2018-06-09T03:12:08.224Z,69.09
2018-06-09T03:14:34.161Z,69.73
2018-06-09T03:17:00.122Z,70.00
2018-06-09T03:19:26.110Z,71.23
2018-06-09T03:21:52.064Z,69.84
2018-06-09T03:24:18.030Z,69.77
2018-06-09T03:26:43.995Z,69.54
2018-06-09T03:29:10.005Z,70.49
2018-06-09T03:31:35.956Z,72.12
2018-06-09T03:34:01.926Z,70.92
2018-06-09T03:36:27.881Z,70.33
2018-06-09T03:38:53.835Z,69.54
2018-06-09T03:41:19.793Z,68.79
2018-06-09T03:43:45.749Z,70.40
2018-06-09T03:46:11.716Z,70.92
2018-06-09T03:48:37.677Z,71.03
2018-06-09T03:51:03.644Z,69.38
2018-06-09T03:53:29.585Z,69.10
2018-06-09T03:55:55.558Z,68.83
2018-06-09T03:58:21.510Z,68.30
2018-06-09T04:00:47.471Z,68.77
2018-06-09T04:03:13.455Z,69.60
2018-06-09T04:05:39.393Z,69.91
2018-06-09T04:08:05.360Z,71.13
2018-06-09T04:10:31.316Z,70.24
2018-06-09T04:12:57.281Z,68.60
2018-06-09T04:15:23.238Z,69.05
2018-06-09T04:17:49.192Z,69.19
2018-06-09T04:20:15.149Z,68.77
2018-06-09T04:22:41.116Z,68.77
2018-06-09T04:25:07.049Z,68.79
2018-06-09T04:27:32.994Z,67.61
2018-06-09T04:29:58.946Z,67.59
2018-06-09T04:32:24.890Z,68.55
2018-06-09T04:34:50.848Z,68.44
2018-06-09T04:37:16.827Z,68.44
2018-06-09T04:39:42.794Z,69.54
2018-06-09T04:42:08.732Z,67.01
2018-06-09T04:44:34.717Z,67.76
2018-06-09T04:47:00.680Z,67.59
2018-06-09T04:49:26.656Z,65.28
2018-06-09T04:51:52.610Z,65.83
2018-06-09T04:54:18.573Z,65.63
2018-06-09T04:56:44.563Z,64.22
2018-06-09T04:59:10.620Z,64.34
2018-06-09T05:01:36.547Z,64.08
2018-06-09T05:04:02.510Z,64.66
2018-06-09T05:06:28.484Z,65.18
2018-06-09T05:08:54.471Z,65.33
2018-06-09T05:11:20.463Z,64.57
2018-06-09T05:13:46.435Z,66.28
2018-06-09T05:16:12.407Z,64.67
2018-06-09T05:18:38.340Z,65.48
2018-06-09T05:21:04.284Z,65.57
2018-06-09T05:26:02.530Z,64.84
2018-06-09T05:28:28.504Z,66.30
2018-06-09T05:30:54.462Z,66.01
2018-06-09T05:33:20.419Z,65.45
2018-06-09T05:35:46.507Z,64.72
2018-06-09T05:38:12.839Z,64.10
2018-06-09T05:40:38.772Z,64.60
2018-06-09T05:43:04.720Z,64.64
2018-06-09T05:45:30.648Z,64.32
2018-06-09T05:47:56.613Z,63.08
2018-06-09T05:50:22.583Z,63.32
2018-06-09T05:52:48.570Z,63.85
2018-06-09T05:55:14.515Z,63.16
2018-06-09T05:57:40.480Z,63.32
2018-06-09T06:00:06.441Z,63.17
2018-06-09T06:02:32.383Z,63.05
2018-06-09T06:04:58.352Z,64.33
2018-06-09T06:07:24.311Z,64.40
2018-06-09T06:09:50.246Z,63.25
2018-06-09T06:12:18.274Z,63.11
2018-06-09T06:14:44.214Z,63.27
2018-06-09T06:17:10.167Z,62.69
2018-06-09T06:19:36.135Z,61.07
2018-06-09T06:22:02.102Z,61.01
2018-06-09T06:24:28.087Z,60.45
2018-06-09T06:26:54.067Z,58.99
2018-06-09T06:29:20.064Z,58.35
2018-06-09T06:31:46.026Z,57.91
2018-06-09T06:34:12.003Z,56.68
2018-06-09T06:36:37.946Z,56.87
2018-06-09T06:39:03.876Z,56.13
2018-06-09T06:41:31.884Z,56.11
2018-06-09T06:43:57.847Z,55.41
2018-06-09T06:46:23.802Z,54.83
2018-06-09T06:48:49.773Z,55.40
2018-06-09T06:51:15.783Z,55.62
2018-06-09T06:53:41.748Z,54.79
2018-06-09T06:56:07.700Z,53.69
2018-06-09T06:58:33.662Z,53.81
2018-06-09T07:00:59.627Z,53.29
2018-06-09T07:03:25.609Z,53.78
2018-06-09T07:05:51.600Z,53.66
2018-06-09T07:08:17.563Z,53.65
2018-06-09T07:10:43.538Z,52.98
2018-06-09T07:13:09.564Z,52.92
2018-06-09T07:15:35.548Z,53.11
2018-06-09T07:18:01.486Z,53.03
2018-06-09T07:20:27.465Z,52.86
2018-06-09T07:22:53.399Z,52.26
2018-06-09T07:25:19.346Z,52.58
2018-06-09T07:27:45.296Z,51.89
2018-06-09T07:30:11.284Z,52.14
2018-06-09T07:32:37.233Z,51.35
2018-06-09T07:35:03.187Z,50.70
2018-06-09T07:37:29.154Z,50.70
2018-06-09T07:39:55.110Z,50.88
2018-06-09T07:42:21.040Z,50.53
2018-06-09T07:44:46.981Z,49.98
2018-06-09T07:47:12.941Z,49.12
2018-06-09T07:49:38.911Z,49.78
2018-06-09T07:52:04.896Z,50.38
2018-06-09T07:54:30.874Z,49.91
2018-06-09T07:56:56.900Z,49.43
2018-06-09T07:59:22.921Z,48.98
2018-06-09T08:01:48.877Z,49.45
2018-06-09T08:04:14.828Z,49.17
2018-06-09T08:06:40.808Z,50.04
2018-06-09T08:09:06.766Z,49.72
2018-06-09T08:11:32.743Z,50.22
2018-06-09T08:13:58.697Z,49.64
2018-06-09T08:16:24.676Z,50.17
2018-06-09T08:18:50.631Z,50.22
2018-06-09T08:21:16.588Z,50.12
2018-06-09T08:23:43.196Z,51.31
2018-06-09T08:26:09.160Z,51.05
2018-06-09T08:28:35.109Z,51.80
2018-06-09T08:31:01.065Z,51.95
2018-06-09T08:33:27.022Z,52.52
2018-06-09T08:35:52.996Z,52.58
2018-06-09T08:38:18.936Z,53.36
2018-06-09T08:40:44.876Z,53.60
2018-06-09T08:43:10.806Z,53.87
2018-06-09T08:45:36.773Z,54.43
2018-06-09T08:48:02.756Z,53.76
2018-06-09T08:50:28.725Z,54.39
2018-06-09T08:52:54.698Z,53.62
2018-06-09T08:55:20.665Z,54.76
2018-06-09T08:57:46.605Z,54.34
2018-06-09T09:00:12.648Z,55.06
2018-06-09T09:02:38.635Z,55.35
2018-06-09T09:05:04.596Z,56.00
2018-06-09T09:07:30.572Z,55.97
2018-06-09T09:09:56.544Z,55.92
2018-06-09T09:12:22.531Z,54.87
2018-06-09T09:14:48.500Z,54.92
2018-06-09T09:17:14.452Z,55.29
2018-06-09T09:19:40.433Z,54.63
2018-06-09T09:22:06.383Z,53.97
2018-06-09T09:24:32.340Z,55.16
2018-06-09T09:26:58.291Z,54.95
2018-06-09T09:29:24.233Z,55.36
2018-06-09T09:31:50.198Z,53.60
2018-06-09T09:34:16.172Z,54.70
2018-06-09T09:36:42.154Z,54.84
2018-06-09T09:39:08.123Z,56.18
2018-06-09T09:41:34.071Z,56.05
2018-06-09T09:44:00.035Z,55.20
2018-06-09T09:46:26.039Z,56.03
2018-06-09T09:48:52.087Z,54.09
2018-06-09T09:51:18.057Z,54.19
2018-06-09T09:53:43.992Z,54.20
2018-06-09T09:56:09.933Z,54.46
2018-06-09T09:58:35.889Z,54.90
2018-06-09T10:01:01.864Z,55.06
2018-06-09T10:03:27.848Z,54.43
2018-06-09T10:05:53.794Z,54.36
2018-06-09T10:08:19.745Z,54.11
2018-06-09T10:10:45.712Z,53.74
2018-06-09T10:13:11.680Z,54.47
2018-06-09T10:15:42.528Z,54.85
2018-06-09T10:18:08.494Z,52.71
2018-06-09T10:20:34.444Z,53.52
2018-06-09T10:23:00.441Z,53.15
2018-06-09T10:25:26.429Z,53.89
2018-06-09T10:27:52.385Z,54.19
2018-06-09T10:30:18.342Z,53.78
2018-06-09T10:32:44.418Z,53.01
2018-06-09T10:35:10.332Z,54.62
2018-06-09T10:37:36.319Z,53.31
2018-06-09T10:40:02.305Z,53.52
2018-06-09T10:42:28.289Z,53.66
2018-06-09T10:44:54.243Z,54.01
2018-06-09T10:47:20.213Z,54.30
2018-06-09T10:49:46.168Z,53.51
2018-06-09T10:52:12.161Z,53.45
2018-06-09T10:54:38.139Z,53.93
2018-06-09T10:57:04.078Z,53.52
2018-06-09T10:59:30.137Z,53.49
2018-06-09T11:01:56.081Z,53.47
2018-06-09T11:04:22.024Z,54.85
2018-06-09T11:06:47.980Z,53.21
2018-06-09T11:09:14.042Z,53.58
2018-06-09T11:11:40.010Z,54.34
2018-06-09T11:14:06.025Z,53.25
2018-06-09T11:16:31.989Z,53.68
2018-06-09T11:18:57.947Z,53.61
2018-06-09T11:21:28.474Z,54.12
2018-06-09T11:23:54.438Z,53.78
2018-06-09T11:26:20.396Z,53.58
2018-06-09T11:28:46.391Z,53.56
2018-06-09T11:31:12.371Z,54.15
2018-06-09T11:33:38.733Z,53.13
2018-06-09T11:36:04.669Z,52.55
2018-06-09T11:38:30.624Z,53.31
2018-06-09T11:40:57.696Z,51.81
2018-06-09T11:43:23.649Z,52.45
2018-06-09T11:45:49.609Z,53.32
2018-06-09T11:48:15.556Z,53.35
2018-06-09T11:50:41.513Z,51.30
2018-06-09T11:53:07.501Z,51.35
2018-06-09T11:55:33.520Z,51.65
2018-06-09T11:57:59.480Z,52.70
2018-06-09T12:00:25.449Z,53.16
2018-06-09T12:02:51.381Z,52.17
2018-06-09T12:05:17.320Z,53.10
2018-06-09T12:07:43.270Z,53.06
2018-06-09T12:10:09.200Z,53.21
2018-06-09T12:12:35.157Z,51.61
2018-06-09T12:15:01.109Z,51.29
2018-06-09T12:17:27.081Z,52.33
2018-06-09T12:19:53.028Z,52.19
2018-06-09T12:22:18.984Z,52.77
2018-06-09T12:24:44.967Z,52.14
2018-06-09T12:27:10.915Z,52.02
2018-06-09T12:29:36.861Z,52.49
2018-06-09T12:32:02.815Z,53.15
2018-06-09T12:34:28.784Z,52.74
2018-06-09T12:36:54.760Z,53.37
2018-06-09T12:39:20.739Z,52.27
2018-06-09T12:41:46.757Z,52.40
2018-06-09T12:44:12.759Z,51.90
2018-06-09T12:46:38.702Z,53.02
2018-06-09T12:49:04.710Z,54.25
2018-06-09T12:51:30.669Z,52.10
2018-06-09T12:53:56.613Z,53.96
2018-06-09T12:56:22.580Z,54.37
2018-06-09T12:58:48.537Z,52.50
2018-06-09T13:01:14.473Z,53.63
2018-06-09T13:03:40.419Z,54.28
2018-06-09T13:06:06.387Z,54.07
2018-06-09T13:08:32.366Z,53.84
2018-06-09T13:10:58.302Z,53.62
2018-06-09T13:13:24.347Z,53.94
2018-06-09T13:15:50.285Z,53.54
2018-06-09T13:18:16.295Z,53.14
2018-06-09T13:20:42.340Z,51.98
2018-06-09T13:23:08.356Z,52.98
2018-06-09T13:25:34.366Z,52.10
2018-06-09T13:28:00.313Z,53.95
2018-06-09T13:30:26.353Z,52.25
2018-06-09T13:32:52.334Z,51.81
2018-06-09T13:35:18.336Z,52.49
2018-06-09T13:37:44.395Z,52.37
2018-06-09T13:40:10.393Z,50.93
2018-06-09T13:42:36.429Z,50.99
2018-06-09T13:45:02.452Z,52.44
2018-06-09T13:47:28.414Z,52.37
2018-06-09T13:49:54.477Z,52.88
2018-06-09T13:52:20.501Z,53.53
2018-06-09T13:54:47.563Z,52.71
2018-06-09T13:57:13.517Z,53.98
2018-06-09T13:59:39.504Z,53.90
2018-06-09T14:02:05.461Z,56.38
2018-06-09T14:04:31.416Z,54.32
2018-06-09T14:06:57.436Z,55.77
2018-06-09T14:09:23.394Z,56.67
2018-06-09T14:11:49.355Z,54.82
2018-06-09T14:14:15.316Z,55.57
2018-06-09T14:16:41.289Z,53.76
2018-06-09T14:19:07.222Z,52.09
2018-06-09T14:21:33.171Z,53.11
2018-06-09T14:23:59.102Z,53.16
2018-06-09T14:26:25.091Z,53.57
2018-06-09T14:28:51.039Z,52.14
2018-06-09T14:31:16.994Z,52.87
2018-06-09T14:33:42.938Z,53.03
2018-06-09T14:36:08.911Z,52.92
2018-06-09T14:38:34.865Z,52.56
2018-06-09T14:41:00.819Z,54.08
2018-06-09T14:43:26.769Z,53.85
2018-06-09T14:45:52.735Z,52.45
2018-06-09T14:48:18.680Z,53.53
2018-06-09T14:50:44.674Z,54.22
2018-06-09T14:53:10.619Z,54.29
2018-06-09T14:55:36.597Z,54.59
2018-06-09T14:58:02.530Z,53.19
2018-06-09T15:00:28.505Z,53.98
2018-06-09T15:02:54.487Z,54.17
2018-06-09T15:05:20.504Z,53.80
2018-06-09T15:07:46.441Z,54.50
2018-06-09T15:10:12.447Z,54.21
2018-06-09T15:12:38.396Z,54.49
2018-06-09T15:15:04.357Z,55.07
2018-06-09T15:17:30.292Z,56.62
2018-06-09T15:19:56.228Z,57.75
2018-06-09T15:22:22.169Z,59.44
2018-06-09T15:24:48.103Z,60.22
2018-06-09T15:27:14.052Z,59.38
2018-06-09T15:29:40.017Z,63.02
2018-06-09T15:32:05.974Z,63.46
2018-06-09T15:34:31.932Z,60.70
2018-06-09T15:36:57.889Z,61.22
2018-06-09T15:39:23.865Z,60.54
2018-06-09T15:41:49.805Z,64.30
2018-06-09T15:44:15.742Z,61.57
2018-06-09T15:46:41.703Z,65.91
2018-06-09T15:49:07.655Z,66.56
2018-06-09T15:51:33.635Z,66.78
2018-06-09T15:53:59.585Z,65.47
2018-06-09T15:56:25.547Z,67.47
2018-06-09T15:58:51.517Z,65.76
2018-06-09T16:01:17.480Z,66.83
2018-06-09T16:03:43.446Z,68.59
2018-06-09T16:06:09.518Z,64.72
2018-06-09T16:08:35.475Z,62.65
2018-06-09T16:11:01.429Z,63.20
2018-06-09T16:13:28.504Z,62.00
2018-06-09T16:15:54.484Z,61.48
2018-06-09T16:18:20.561Z,60.02
2018-06-09T16:20:48.626Z,60.92
2018-06-09T16:23:14.612Z,60.26
2018-06-09T16:25:40.671Z,60.97
2018-06-09T16:28:06.625Z,59.67
2018-06-09T16:30:32.609Z,61.19
2018-06-09T16:32:59.636Z,59.56
2018-06-09T16:35:25.589Z,57.74
2018-06-09T16:37:51.527Z,56.94
2018-06-09T16:40:17.479Z,56.66
2018-06-09T16:42:43.417Z,57.46
2018-06-09T16:45:11.425Z,58.51
2018-06-09T16:47:37.828Z,57.33
2018-06-09T16:50:03.772Z,56.81
2018-06-09T16:52:30.799Z,57.55
2018-06-09T16:54:56.740Z,56.77
2018-06-09T16:57:22.702Z,58.62
2018-06-09T16:59:48.669Z,57.28
2018-06-09T17:02:14.616Z,58.66
2018-06-09T17:04:40.556Z,59.51
2018-06-09T17:07:06.504Z,60.58
2018-06-09T17:09:32.475Z,61.64
2018-06-09T17:11:58.441Z,60.71
2018-06-09T17:14:24.399Z,61.61
2018-06-09T17:16:50.389Z,60.69
2018-06-09T17:19:16.350Z,61.10
2018-06-09T17:21:42.317Z,60.64
2018-06-09T17:24:08.289Z,61.82
2018-06-09T17:26:34.241Z,62.22
2018-06-09T17:29:00.212Z,61.02
2018-06-09T17:31:26.284Z,60.79
2018-06-09T17:33:52.257Z,61.77
2018-06-09T17:36:18.210Z,61.56
2018-06-09T17:38:48.152Z,61.38
2018-06-09T17:41:14.098Z,61.46
2018-06-09T17:43:40.060Z,62.50
2018-06-09T17:46:06.005Z,64.49
2018-06-09T17:48:32.029Z,64.13
2018-06-09T17:50:58.081Z,64.93
2018-06-09T17:53:24.058Z,65.01
2018-06-09T17:55:50.017Z,65.49
2018-06-09T17:58:15.972Z,65.60
2018-06-09T18:00:41.933Z,66.53
2018-06-09T18:03:07.949Z,66.05
2018-06-09T18:05:33.883Z,65.21
2018-06-09T18:07:59.829Z,66.20
2018-06-09T18:10:25.776Z,65.90
2018-06-09T18:12:51.737Z,66.90
2018-06-09T18:15:17.695Z,67.32
2018-06-09T18:17:43.674Z,66.28
2018-06-09T18:20:09.661Z,67.00
2018-06-09T18:22:35.628Z,66.99
2018-06-09T18:25:01.740Z,66.75
2018-06-09T18:27:27.728Z,66.23
2018-06-09T18:29:54.731Z,65.78
